createdAt,value
2019-05-15T07:14:11.200Z,0.90
2019-05-15T07:16:39.866Z,0.70
2019-05-15T07:19:08.629Z,1.00
2019-05-15T07:21:38.835Z,0.80
2019-05-15T07:24:09.153Z,0.90
2019-05-15T07:26:39.194Z,0.70
2019-05-15T07:29:09.212Z,0.88
2019-05-15T07:31:38.428Z,1.10
2019-05-15T07:34:08.335Z,0.93
2019-05-15T07:36:39.046Z,0.80
2019-05-15T07:39:08.386Z,1.00
2019-05-15T07:41:39.196Z,1.40
2019-05-15T07:44:10.006Z,1.05
2019-05-15T07:46:38.608Z,1.10
2019-05-15T07:49:09.034Z,1.10
2019-05-15T07:51:38.147Z,1.10
2019-05-15T07:54:09.250Z,1.00
2019-05-15T07:56:38.061Z,1.20
2019-05-15T07:59:08.015Z,1.20
2019-05-15T08:01:38.587Z,1.45
2019-05-15T08:04:22.783Z,1.30
2019-05-15T08:06:38.811Z,1.20
2019-05-15T08:09:08.515Z,1.10
2019-05-15T08:11:39.159Z,1.27
2019-05-15T08:14:08.992Z,1.30
2019-05-15T08:16:39.557Z,1.10
2019-05-15T08:19:08.640Z,1.07
2019-05-15T08:21:38.474Z,1.47
2019-05-15T08:24:08.554Z,1.40
2019-05-15T08:26:37.957Z,1.00
2019-05-15T08:29:08.471Z,1.30
2019-05-15T08:31:38.795Z,0.98
2019-05-15T08:34:13.633Z,1.10
2019-05-15T08:36:38.529Z,1.10
2019-05-15T08:39:08.591Z,1.10
2019-05-15T08:41:39.084Z,1.00
2019-05-15T08:44:08.707Z,1.15
2019-05-15T08:46:38.778Z,1.20
2019-05-15T08:49:09.170Z,1.75
2019-05-15T08:51:38.203Z,1.05
2019-05-15T08:54:08.587Z,0.80
2019-05-15T08:56:39.316Z,1.35
2019-05-15T08:59:08.841Z,1.20
2019-05-15T09:01:38.269Z,1.32
2019-05-15T09:04:09.004Z,1.02
2019-05-15T09:06:41.315Z,1.20
2019-05-15T09:09:09.596Z,1.10
2019-05-15T09:11:39.079Z,1.22
2019-05-15T09:14:08.339Z,1.20
2019-05-15T09:16:38.773Z,1.12
2019-05-15T09:19:08.334Z,1.20
2019-05-15T09:21:38.706Z,1.30
2019-05-15T09:24:09.416Z,1.20
2019-05-15T09:26:40.472Z,1.25
2019-05-15T09:29:09.329Z,1.30
2019-05-15T09:31:39.143Z,1.05
2019-05-15T09:34:09.111Z,1.10
2019-05-15T09:36:42.222Z,1.12
2019-05-15T09:39:08.776Z,1.10
2019-05-15T09:41:38.048Z,1.07
2019-05-15T09:44:07.980Z,0.90
2019-05-15T09:46:38.284Z,0.93
2019-05-15T09:49:08.876Z,0.98
2019-05-15T09:51:38.528Z,1.00
2019-05-15T09:54:08.106Z,1.17
2019-05-15T09:56:38.520Z,0.65
2019-05-15T09:59:08.949Z,1.10
2019-05-15T10:01:39.598Z,0.80
2019-05-15T10:04:08.516Z,0.98
2019-05-15T10:06:39.131Z,1.02
2019-05-15T10:09:09.086Z,0.98
2019-05-15T10:11:38.327Z,0.80
2019-05-15T10:14:09.586Z,0.82
2019-05-15T10:16:37.580Z,0.93
2019-05-15T10:19:08.799Z,0.90
2019-05-15T10:21:39.677Z,0.80
2019-05-15T10:24:09.331Z,0.80
2019-05-15T10:26:39.318Z,0.90
2019-05-15T10:29:09.174Z,1.10
2019-05-15T10:31:38.925Z,0.80
2019-05-15T10:34:09.178Z,0.90
2019-05-15T10:36:38.701Z,0.95
2019-05-15T10:39:08.455Z,0.85
2019-05-15T10:41:38.850Z,0.98
2019-05-15T10:44:09.199Z,1.20
2019-05-15T10:46:38.311Z,1.30
2019-05-15T10:49:08.576Z,1.00
2019-05-15T10:51:39.573Z,0.85
2019-05-15T10:54:08.701Z,0.82
2019-05-15T10:56:38.547Z,0.80
2019-05-15T10:59:08.485Z,0.82
2019-05-15T11:01:38.710Z,0.80
2019-05-15T11:04:09.123Z,1.05
2019-05-15T11:06:38.460Z,0.90
2019-05-15T11:09:08.698Z,0.62
2019-05-15T11:11:37.527Z,0.70
2019-05-15T11:14:08.836Z,0.80
2019-05-15T11:16:38.852Z,1.07
2019-05-15T11:19:08.031Z,1.00
2019-05-15T11:21:36.795Z,0.78
2019-05-15T11:24:05.610Z,0.72
2019-05-15T11:26:34.361Z,0.70
2019-05-15T11:29:03.044Z,0.85
2019-05-15T11:31:31.719Z,0.90
2019-05-15T11:34:02.401Z,0.90
2019-05-15T11:36:31.018Z,0.80
2019-05-15T11:38:59.614Z,0.70
2019-05-15T11:41:29.598Z,0.80
2019-05-15T11:43:58.357Z,0.70
2019-05-15T11:46:29.065Z,0.62
2019-05-15T11:48:58.762Z,1.05
2019-05-15T11:51:29.014Z,0.90
2019-05-15T11:53:58.780Z,0.70
2019-05-15T11:56:29.548Z,0.80
2019-05-15T11:58:58.119Z,0.90
2019-05-15T12:01:28.705Z,0.90
2019-05-15T12:03:58.510Z,0.82
2019-05-15T12:06:29.257Z,0.75
2019-05-15T12:08:59.186Z,0.70
2019-05-15T12:11:36.387Z,0.90
2019-05-15T12:13:58.447Z,0.60
2019-05-15T12:16:29.075Z,0.70
2019-05-15T12:19:08.509Z,0.80
2019-05-15T12:21:28.571Z,0.90
2019-05-15T12:23:59.093Z,0.80
2019-05-15T12:26:29.185Z,0.90
2019-05-15T12:28:59.030Z,0.80
2019-05-15T12:31:27.728Z,0.75
2019-05-15T12:33:58.513Z,0.80
2019-05-15T12:36:50.118Z,0.90
2019-05-15T12:38:58.690Z,0.90
2019-05-15T13:01:30.836Z,0.88
2019-05-15T13:03:59.430Z,0.88
2019-05-15T13:06:28.693Z,0.80
2019-05-15T13:08:59.487Z,0.80
2019-05-15T13:11:28.460Z,0.95
2019-05-15T13:13:59.080Z,0.80
2019-05-15T13:16:28.115Z,0.93
2019-05-15T13:18:58.814Z,1.00
2019-05-15T13:21:29.451Z,1.15
2019-05-15T13:23:58.663Z,0.75
2019-05-15T13:26:27.307Z,0.98
2019-05-15T13:28:58.116Z,1.10
2019-05-15T13:31:28.209Z,0.82
2019-05-15T13:33:58.557Z,1.05
2019-05-15T13:36:28.875Z,0.80
2019-05-15T13:38:57.888Z,0.90
2019-05-15T13:41:28.249Z,0.85
2019-05-15T13:43:58.410Z,0.53
2019-05-15T13:46:32.811Z,0.60
2019-05-15T13:49:00.526Z,1.10
2019-05-15T13:51:29.222Z,0.80
2019-05-15T13:53:57.940Z,1.02
2019-05-15T13:56:28.812Z,0.90
2019-05-15T13:58:58.724Z,1.10
2019-05-15T14:01:28.608Z,0.82
2019-05-15T14:03:58.869Z,1.27
2019-05-15T14:06:28.614Z,1.10
2019-05-15T14:08:58.158Z,1.10
2019-05-15T14:11:30.888Z,1.00
2019-05-15T14:13:59.481Z,1.12
2019-05-15T14:16:28.289Z,0.90
2019-05-15T14:18:58.766Z,0.80
2019-05-15T14:21:28.561Z,0.85
2019-05-15T14:23:58.868Z,1.07
2019-05-15T14:26:27.597Z,1.07
2019-05-15T14:28:58.562Z,1.00
2019-05-15T14:31:28.485Z,0.85
2019-05-15T14:33:58.019Z,1.07
2019-05-15T14:36:28.743Z,0.90
2019-05-15T14:38:58.762Z,0.98
2019-05-15T14:41:29.281Z,0.72
2019-05-15T14:44:13.055Z,1.20
2019-05-15T14:46:28.473Z,0.90
2019-05-15T14:48:58.273Z,0.90
2019-05-15T14:51:28.527Z,1.00
2019-05-15T14:53:58.353Z,1.00
2019-05-15T14:56:27.146Z,0.90
2019-05-15T14:58:58.436Z,1.10
2019-05-15T15:01:26.229Z,0.98
2019-05-15T15:03:54.834Z,1.20
2019-05-15T15:06:23.495Z,1.30
2019-05-15T15:08:52.329Z,0.98
2019-05-15T15:11:20.980Z,1.20
2019-05-15T15:13:49.577Z,0.90
2019-05-15T15:16:19.348Z,1.30
2019-05-15T15:18:48.390Z,0.93
2019-05-15T15:21:19.635Z,0.93
2019-05-15T15:23:48.096Z,0.80
2019-05-15T15:26:18.977Z,0.82
2019-05-15T15:28:48.838Z,1.00
2019-05-15T15:31:19.148Z,0.80
2019-05-15T15:33:48.591Z,1.05
2019-05-15T15:36:17.658Z,1.10
2019-05-15T15:38:48.379Z,0.90
2019-05-15T15:41:16.810Z,0.93
2019-05-15T15:43:48.323Z,0.80
2019-05-15T15:46:15.807Z,0.80
2019-05-15T15:48:44.446Z,0.80
2019-05-15T15:51:13.032Z,0.78
2019-05-15T15:53:42.037Z,0.60
2019-05-15T15:56:10.874Z,0.53
2019-05-15T15:58:39.585Z,0.42
2019-05-15T16:01:09.019Z,0.50
2019-05-15T16:03:38.041Z,0.60
2019-05-15T16:06:06.849Z,0.53
2019-05-15T16:08:48.091Z,0.40
2019-05-15T16:11:07.957Z,0.65
2019-05-15T16:13:38.443Z,0.60
2019-05-15T16:16:08.412Z,0.72
2019-05-15T16:18:38.383Z,0.70
2019-05-15T16:21:08.246Z,0.50
2019-05-15T16:23:38.581Z,0.53
2019-05-15T16:26:09.267Z,0.60
2019-05-15T16:28:38.790Z,0.70
2019-05-15T16:31:08.034Z,0.50
2019-05-15T16:33:38.838Z,0.60
2019-05-15T16:36:08.782Z,0.40
2019-05-15T16:38:38.985Z,0.50
2019-05-15T16:41:09.021Z,0.88
2019-05-15T16:43:37.936Z,0.70
2019-05-15T16:46:08.973Z,0.57
2019-05-15T16:48:38.979Z,0.60
2019-05-15T16:51:09.269Z,0.60
2019-05-15T16:53:38.278Z,0.57
2019-05-15T16:56:07.023Z,0.60
2019-05-15T16:58:38.481Z,0.60
2019-05-15T17:01:07.605Z,0.70
2019-05-15T17:03:38.065Z,0.72
2019-05-15T17:06:09.251Z,0.60
2019-05-15T17:08:37.871Z,0.42
2019-05-15T17:11:08.085Z,0.50
2019-05-15T17:13:39.379Z,0.57
2019-05-15T17:16:07.734Z,0.50
2019-05-15T17:18:38.121Z,0.60
2019-05-15T17:21:10.012Z,0.57
2019-05-15T17:23:38.207Z,1.12
2019-05-15T17:26:08.888Z,0.80
2019-05-15T17:28:38.275Z,0.70
2019-05-15T17:31:09.242Z,1.00
2019-05-15T17:33:38.121Z,0.75
2019-05-15T17:36:06.808Z,0.60
2019-05-15T17:38:37.966Z,0.62
2019-05-15T17:41:08.256Z,0.40
2019-05-15T17:43:37.910Z,0.60
2019-05-15T17:46:08.863Z,0.53
2019-05-15T17:48:38.922Z,0.50
2019-05-15T17:51:09.183Z,0.40
2019-05-15T17:53:38.454Z,0.40
2019-05-15T17:56:07.088Z,0.50
2019-05-15T17:58:37.960Z,0.50
2019-05-15T18:01:08.536Z,0.50
2019-05-15T18:03:39.022Z,0.40
2019-05-15T18:06:06.846Z,0.50
2019-05-15T18:08:35.926Z,0.50
2019-05-15T18:11:04.564Z,0.40
2019-05-15T18:13:33.234Z,0.50
2019-05-15T18:16:03.959Z,0.40
2019-05-15T18:18:32.243Z,0.50
2019-05-15T18:21:00.987Z,0.47
2019-05-15T18:23:29.596Z,0.45
2019-05-15T18:25:58.638Z,0.40
2019-05-15T18:28:27.427Z,0.40
2019-05-15T18:30:58.568Z,0.50
2019-05-15T18:33:27.999Z,0.50
2019-05-15T18:35:58.075Z,0.47
2019-05-15T18:38:28.154Z,0.40
2019-05-15T18:40:58.302Z,0.40
2019-05-15T18:43:28.392Z,0.40
2019-05-15T18:45:58.481Z,0.60
2019-05-15T18:48:28.876Z,0.68
2019-05-15T18:50:58.781Z,0.53
2019-05-15T18:53:28.319Z,0.50
2019-05-15T18:55:58.517Z,0.50
2019-05-15T18:58:27.179Z,0.55
2019-05-15T19:00:57.790Z,0.42
2019-05-15T19:03:27.901Z,0.40
2019-05-15T19:05:58.461Z,0.60
2019-05-15T19:08:28.210Z,0.35
2019-05-15T19:10:58.566Z,0.35
2019-05-15T19:13:28.321Z,0.35
2019-05-15T19:15:58.014Z,0.50
2019-05-15T19:18:28.055Z,0.57
2019-05-15T19:20:58.748Z,0.50
2019-05-15T19:23:27.507Z,0.57
2019-05-15T19:25:57.935Z,0.70
2019-05-15T19:28:29.395Z,0.40
2019-05-15T19:30:58.701Z,0.60
2019-05-15T19:33:36.890Z,0.50
2019-05-15T19:35:57.860Z,0.50
2019-05-15T19:38:27.912Z,0.50
2019-05-15T19:41:02.565Z,0.40
2019-05-15T19:43:28.571Z,0.40
2019-05-15T19:45:58.475Z,0.50
2019-05-15T19:48:27.342Z,0.50
2019-05-15T19:50:58.130Z,0.47
2019-05-15T19:53:28.337Z,0.57
2019-05-15T19:55:57.910Z,0.60
2019-05-15T19:58:29.365Z,0.42
2019-05-15T20:00:57.992Z,0.62
2019-05-15T20:03:28.351Z,0.40
2019-05-15T20:05:58.146Z,0.70
2019-05-15T20:08:27.780Z,0.50
2019-05-15T20:10:59.134Z,0.50
2019-05-15T20:13:29.034Z,0.60
2019-05-15T20:15:58.074Z,0.40
2019-05-15T20:18:27.831Z,0.45
2019-05-15T20:20:58.532Z,0.50
2019-05-15T20:23:28.868Z,0.50
2019-05-15T20:25:57.773Z,0.42
2019-05-15T20:28:29.763Z,0.50
2019-05-15T20:30:58.788Z,0.50
2019-05-15T20:33:28.576Z,0.40
2019-05-15T20:35:58.855Z,0.50
2019-05-15T20:38:28.547Z,0.50
2019-05-15T20:40:59.779Z,0.50
2019-05-15T20:43:27.857Z,0.50
2019-05-15T20:45:57.736Z,0.60
2019-05-15T20:48:28.718Z,0.60
2019-05-15T20:50:58.935Z,0.70
2019-05-15T20:53:28.710Z,0.45
2019-05-15T20:55:58.931Z,0.60
2019-05-15T20:58:27.596Z,0.60
2019-05-15T21:00:58.877Z,0.70
2019-05-15T21:03:26.537Z,0.60
2019-05-15T21:05:55.223Z,0.72
2019-05-15T21:08:23.859Z,0.57
2019-05-15T21:10:52.417Z,0.60
2019-05-15T21:13:21.033Z,0.88
2019-05-15T21:15:49.655Z,0.82
2019-05-15T21:18:20.137Z,0.60
2019-05-15T21:20:48.589Z,0.53
2019-05-15T21:23:18.309Z,0.60
2019-05-15T21:25:48.459Z,0.50
2019-05-15T21:28:17.179Z,0.50
2019-05-15T21:30:45.797Z,0.50
2019-05-15T21:33:14.455Z,0.60
2019-05-15T21:35:43.013Z,0.53
2019-05-15T21:38:11.813Z,0.50
2019-05-15T21:40:40.557Z,0.50
2019-05-15T21:43:09.166Z,0.60
2019-05-15T21:45:39.805Z,0.57
2019-05-15T21:48:09.081Z,0.72
2019-05-15T21:50:38.827Z,0.45
2019-05-15T21:53:07.589Z,0.53
2019-05-15T21:55:38.703Z,0.40
2019-05-15T21:58:08.743Z,0.70
2019-05-15T22:00:39.528Z,0.53
2019-05-15T22:03:08.342Z,0.72
2019-05-15T22:05:38.496Z,0.70
2019-05-15T22:08:07.824Z,0.50
2019-05-15T22:10:38.850Z,0.70
2019-05-15T22:13:07.433Z,0.53
2019-05-15T22:15:36.125Z,0.60
2019-05-15T22:18:05.008Z,0.85
2019-05-15T22:20:33.615Z,0.60
2019-05-15T22:23:02.297Z,0.57
2019-05-15T22:25:30.901Z,0.45
2019-05-15T22:27:59.815Z,0.68
2019-05-15T22:30:30.343Z,0.60
2019-05-15T22:32:58.932Z,0.60
2019-05-15T22:35:29.449Z,0.50
2019-05-15T22:37:58.507Z,0.60
2019-05-15T22:40:29.031Z,0.53
2019-05-15T22:42:59.193Z,0.70
2019-05-15T22:45:28.512Z,0.82
2019-05-15T22:47:58.503Z,0.60
2019-05-15T22:50:28.102Z,0.50
2019-05-15T22:52:58.760Z,0.70
2019-05-15T22:55:28.939Z,0.70
2019-05-15T22:57:58.635Z,0.60
2019-05-15T23:00:29.002Z,0.70
2019-05-15T23:02:58.151Z,0.90
2019-05-15T23:05:29.288Z,0.75
2019-05-15T23:07:59.012Z,0.80
2019-05-15T23:10:29.315Z,0.80
2019-05-15T23:12:58.268Z,0.68
2019-05-15T23:15:28.168Z,0.62
2019-05-15T23:17:58.233Z,0.70
2019-05-15T23:20:28.523Z,0.80
2019-05-15T23:22:58.527Z,0.50
2019-05-15T23:25:28.911Z,0.60
2019-05-15T23:27:58.147Z,0.68
2019-05-15T23:30:28.903Z,0.60
2019-05-15T23:32:58.446Z,0.60
2019-05-15T23:35:35.424Z,0.60
2019-05-15T23:37:58.023Z,0.50
2019-05-15T23:40:28.782Z,0.70
2019-05-15T23:42:57.319Z,0.80
2019-05-15T23:45:25.927Z,0.50
2019-05-15T23:47:54.795Z,0.70
2019-05-15T23:50:23.320Z,0.60
2019-05-15T23:52:51.962Z,0.60
2019-05-15T23:55:20.564Z,0.70
2019-05-15T23:57:49.290Z,0.60
